Time;durP1;ratioP1;P1;durP2;ratioP2;P2;SDS_P1;SDS_P2;PMS_P1;PMS_P2;Temp;Humidity;BMP_temperature;BMP_pressure;BME280_temperature;BME280_humidity;BME280_pressure;Samples;Min_cycle;Max_cycle;Signal;HPM_P1;HPM_P2
2023/01/06 00:00:09;;;;;;;10.20;7.00;;;;;;;;;;5012323;28;20486;-44
2023/01/06 00:02:35;;;;;;;11.50;6.90;;;;;;;;;;5013274;28;20420;-44
2023/01/06 00:05:01;;;;;;;6.90;5.60;;;;;;;;;;5008656;28;20422;-43
2023/01/06 00:07:27;;;;;;;6.77;5.43;;;;;;;;;;5012599;28;20462;-43
2023/01/06 00:09:53;;;;;;;6.13;5.00;;;;;;;;;;5012202;28;20450;-43
2023/01/06 00:12:19;;;;;;;10.93;5.20;;;;;;;;;;5006217;28;20481;-43
2023/01/06 00:14:46;;;;;;;5.90;4.90;;;;;;;;;;5011740;28;20470;-43
2023/01/06 00:17:12;;;;;;;6.30;3.27;;;;;;;;;;5011998;28;20434;-43
2023/01/06 00:19:38;;;;;;;4.93;4.30;;;;;;;;;;5008513;28;20481;-43
2023/01/06 00:22:04;;;;;;;6.23;3.43;;;;;;;;;;5012602;28;20423;-44
2023/01/06 00:24:31;;;;;;;4.17;3.77;;;;;;;;;;5006954;28;20412;-43
2023/01/06 00:26:57;;;;;;;3.40;3.10;;;;;;;;;;5010157;28;20424;-43
2023/01/06 00:29:23;;;;;;;6.13;3.50;;;;;;;;;;5012498;28;20815;-43
2023/01/06 00:31:49;;;;;;;6.30;3.30;;;;;;;;;;5012485;28;20797;-43
2023/01/06 00:34:15;;;;;;;5.50;4.03;;;;;;;;;;5008324;28;21044;-43
2023/01/06 00:36:41;;;;;;;7.43;3.67;;;;;;;;;;5012463;28;20501;-43
2023/01/06 00:39:07;;;;;;;7.13;3.40;;;;;;;;;;5004578;28;20558;-43
2023/01/06 00:44:33;;;;;;;5.83;4.20;;;;;;;;;;4971715;28;20427;-43
2023/01/06 00:46:59;;;;;;;8.93;4.10;;;;;;;;;;5008151;28;20423;-43
2023/01/06 00:49:25;;;;;;;8.63;4.17;;;;;;;;;;5011823;28;20439;-43
2023/01/06 00:51:51;;;;;;;7.47;4.20;;;;;;;;;;5011922;28;20462;-43
2023/01/06 00:54:18;;;;;;;6.77;4.70;;;;;;;;;;5005280;28;20597;-43
2023/01/06 00:56:45;;;;;;;4.83;3.70;;;;;;;;;;5011302;28;20888;-43
2023/01/06 00:59:12;;;;;;;6.20;3.50;;;;;;;;;;5011960;28;20431;-43
2023/01/06 01:01:38;;;;;;;3.90;3.50;;;;;;;;;;5008092;28;20411;-43
2023/01/06 01:04:04;;;;;;;4.23;3.43;;;;;;;;;;5011765;28;20794;-43
2023/01/06 01:06:31;;;;;;;6.07;3.73;;;;;;;;;;5006581;28;20412;-43
2023/01/06 01:08:57;;;;;;;3.00;2.80;;;;;;;;;;5009988;28;20439;-43
2023/01/06 01:14:09;;;;;;;3.60;2.90;;;;;;;;;;5012069;28;20561;-43
2023/01/06 01:16:35;;;;;;;11.70;3.40;;;;;;;;;;5007950;28;20969;-44
2023/01/06 01:19:01;;;;;;;3.60;3.10;;;;;;;;;;5011596;28;20435;-43
2023/01/06 01:21:28;;;;;;;4.70;2.70;;;;;;;;;;5004751;28;20465;-44
2023/01/06 01:23:53;;;;;;;5.27;2.70;;;;;;;;;;5014047;28;20454;-43
2023/01/06 01:26:19;;;;;;;6.73;2.90;;;;;;;;;;5009370;28;20454;-43
2023/01/06 01:28:45;;;;;;;3.13;2.83;;;;;;;;;;5010147;28;20923;-43
2023/01/06 01:31:12;;;;;;;5.90;2.73;;;;;;;;;;5018274;28;20769;-43
2023/01/06 01:33:38;;;;;;;4.90;2.93;;;;;;;;;;5018336;28;20792;-43
2023/01/06 01:36:08;;;;;;;7.37;2.77;;;;;;;;;;5010931;28;20463;-43
2023/01/06 01:38:35;;;;;;;4.60;2.20;;;;;;;;;;5019513;28;20504;-43
2023/01/06 01:41:01;;;;;;;2.43;2.23;;;;;;;;;;5019069;28;20419;-43
2023/01/06 01:43:46;;;;;;;6.03;2.47;;;;;;;;;;5018054;28;20411;-42
2023/01/06 01:46:13;;;;;;;2.60;2.00;;;;;;;;;;5004977;28;20997;-43
2023/01/06 01:48:39;;;;;;;3.00;1.90;;;;;;;;;;5011409;28;20801;-43
2023/01/06 01:51:07;;;;;;;4.03;1.80;;;;;;;;;;5016957;28;20423;-43
2023/01/06 01:53:35;;;;;;;4.17;2.20;;;;;;;;;;5018166;28;20485;-43
2023/01/06 01:56:04;;;;;;;7.47;2.00;;;;;;;;;;5017818;28;20549;-43
2023/01/06 01:58:33;;;;;;;2.03;1.70;;;;;;;;;;5017675;28;20431;-43
2023/01/06 02:00:59;;;;;;;5.60;2.03;;;;;;;;;;5012401;28;20919;-43
2023/01/06 02:03:26;;;;;;;3.63;1.73;;;;;;;;;;5017656;28;20462;-43
2023/01/06 02:05:53;;;;;;;6.30;1.60;;;;;;;;;;5017253;28;20433;-43
2023/01/06 02:08:37;;;;;;;2.20;2.00;;;;;;;;;;5015084;28;20438;-43
2023/01/06 02:11:03;;;;;;;11.07;2.70;;;;;;;;;;5017848;28;20514;-43
2023/01/06 02:13:30;;;;;;;5.97;1.60;;;;;;;;;;5014442;28;20420;-43
2023/01/06 02:16:01;;;;;;;2.23;1.37;;;;;;;;;;5016095;28;20454;-43
2023/01/06 02:18:39;;;;;;;4.30;1.87;;;;;;;;;;5017723;28;20429;-43
2023/01/06 02:21:24;;;;;;;7.87;2.40;;;;;;;;;;5017758;28;20414;-43
2023/01/06 02:24:08;;;;;;;1.77;1.53;;;;;;;;;;5015647;28;20418;-43
2023/01/06 02:26:40;;;;;;;2.03;1.80;;;;;;;;;;5017851;28;20421;-43
2023/01/06 02:29:18;;;;;;;2.67;1.47;;;;;;;;;;5012093;28;20425;-43
2023/01/06 02:31:54;;;;;;;3.03;1.70;;;;;;;;;;5017786;28;20457;-43
2023/01/06 02:34:32;;;;;;;5.90;2.03;;;;;;;;;;5011671;28;20565;-43
2023/01/06 02:37:05;;;;;;;6.43;1.70;;;;;;;;;;5017622;28;20445;-43
2023/01/06 02:39:50;;;;;;;5.50;2.07;;;;;;;;;;5016736;28;20858;-43
2023/01/06 02:42:31;;;;;;;2.13;2.00;;;;;;;;;;5002041;28;20494;-43
2023/01/06 02:45:03;;;;;;;1.63;1.53;;;;;;;;;;5014404;28;20425;-43
2023/01/06 02:47:34;;;;;;;5.77;1.97;;;;;;;;;;5014276;28;20418;-43
2023/01/06 02:50:00;;;;;;;2.90;2.17;;;;;;;;;;5014222;28;20403;-43
2023/01/06 02:52:55;;;;;;;3.30;1.93;;;;;;;;;;5013217;28;20925;-43
2023/01/06 02:55:25;;;;;;;16.33;1.97;;;;;;;;;;5007981;28;20465;-44
2023/01/06 02:58:21;;;;;;;2.47;1.93;;;;;;;;;;5013993;28;20430;-43
2023/01/06 03:00:56;;;;;;;2.50;2.03;;;;;;;;;;4941359;28;20530;-43
2023/01/06 03:03:24;;;;;;;2.17;1.83;;;;;;;;;;5014324;28;20766;-43
2023/01/06 03:05:55;;;;;;;2.90;1.70;;;;;;;;;;5012111;28;20419;-43
2023/01/06 03:08:23;;;;;;;12.70;2.30;;;;;;;;;;5013829;28;20923;-43
2023/01/06 03:10:51;;;;;;;6.33;2.90;;;;;;;;;;5008830;28;20450;-43
2023/01/06 03:13:34;;;;;;;2.23;2.00;;;;;;;;;;5014000;28;20419;-43
2023/01/06 03:16:00;;;;;;;3.50;2.00;;;;;;;;;;5013641;28;20472;-43
2023/01/06 03:18:26;;;;;;;2.20;1.77;;;;;;;;;;5013543;28;20458;-43
2023/01/06 03:20:56;;;;;;;7.30;1.90;;;;;;;;;;5010385;28;20801;-43
2023/01/06 03:23:22;;;;;;;2.57;2.30;;;;;;;;;;5013734;28;20465;-43
2023/01/06 03:25:48;;;;;;;4.60;2.07;;;;;;;;;;5013943;28;20407;-43
2023/01/06 03:28:14;;;;;;;2.83;1.73;;;;;;;;;;5006636;28;20508;-43
2023/01/06 03:30:43;;;;;;;3.33;1.73;;;;;;;;;;5013808;28;20824;-43
2023/01/06 03:33:19;;;;;;;4.50;2.10;;;;;;;;;;5013631;28;20429;-43
2023/01/06 03:35:48;;;;;;;5.73;2.33;;;;;;;;;;5013491;28;20567;-43
2023/01/06 03:38:33;;;;;;;3.63;2.17;;;;;;;;;;5007959;28;21045;-43
2023/01/06 03:41:11;;;;;;;2.87;2.20;;;;;;;;;;5013457;28;20502;-43
2023/01/06 03:43:52;;;;;;;9.60;2.03;;;;;;;;;;5013540;28;20442;-43
2023/01/06 03:46:34;;;;;;;3.13;2.10;;;;;;;;;;5004955;28;20769;-43
2023/01/06 03:49:00;;;;;;;3.47;1.80;;;;;;;;;;5012984;28;20446;-43
2023/01/06 03:51:44;;;;;;;2.10;1.67;;;;;;;;;;5010451;28;20834;-43
2023/01/06 03:54:21;;;;;;;2.67;2.33;;;;;;;;;;5005265;28;20558;-43
2023/01/06 03:56:50;;;;;;;4.67;1.73;;;;;;;;;;5013038;28;20829;-44
2023/01/06 03:59:24;;;;;;;3.87;1.97;;;;;;;;;;5012834;28;20467;-43
2023/01/06 04:01:50;;;;;;;5.10;2.10;;;;;;;;;;5011317;28;20410;-44
2023/01/06 04:04:17;;;;;;;1.67;1.57;;;;;;;;;;5013099;28;20461;-43
2023/01/06 04:06:43;;;;;;;1.43;1.33;;;;;;;;;;5008126;28;20789;-43
2023/01/06 04:09:09;;;;;;;1.40;1.30;;;;;;;;;;5012609;28;20443;-44
2023/01/06 04:14:20;;;;;;;3.93;1.60;;;;;;;;;;5004514;28;20506;-43
2023/01/06 04:16:46;;;;;;;3.83;1.53;;;;;;;;;;5012796;28;20415;-43
2023/01/06 04:19:12;;;;;;;7.83;1.70;;;;;;;;;;5011821;28;20434;-43
2023/01/06 04:21:37;;;;;;;3.20;1.40;;;;;;;;;;5008625;28;20407;-43
2023/01/06 04:24:04;;;;;;;3.03;1.70;;;;;;;;;;5012472;28;20435;-43
2023/01/06 04:26:30;;;;;;;2.90;1.63;;;;;;;;;;5012682;28;20907;-43
2023/01/06 04:28:56;;;;;;;6.50;1.80;;;;;;;;;;5010757;28;20428;-43
2023/01/06 04:31:22;;;;;;;2.77;1.60;;;;;;;;;;5012672;28;20839;-43
2023/01/06 04:33:48;;;;;;;5.37;1.97;;;;;;;;;;5012454;28;20435;-43
2023/01/06 04:36:14;;;;;;;4.03;2.07;;;;;;;;;;5009924;28;20467;-43
2023/01/06 04:38:40;;;;;;;2.57;1.33;;;;;;;;;;5008280;28;20427;-43
2023/01/06 04:41:06;;;;;;;1.87;1.30;;;;;;;;;;5012412;28;20422;-43
2023/01/06 04:43:32;;;;;;;1.87;1.30;;;;;;;;;;5012347;28;20502;-43
2023/01/06 04:45:58;;;;;;;4.80;2.10;;;;;;;;;;5009046;28;20411;-43
2023/01/06 04:48:24;;;;;;;1.90;1.70;;;;;;;;;;5012014;28;20954;-43
2023/01/06 04:50:58;;;;;;;3.47;2.17;;;;;;;;;;5012118;28;20914;-43
2023/01/06 04:53:24;;;;;;;2.90;1.50;;;;;;;;;;5006696;28;20561;-43
2023/01/06 04:55:50;;;;;;;8.13;2.30;;;;;;;;;;5008050;28;20557;-43
2023/01/06 04:58:16;;;;;;;1.57;1.40;;;;;;;;;;5011800;28;20426;-43
2023/01/06 05:00:42;;;;;;;3.53;1.60;;;;;;;;;;5012095;28;20422;-43
2023/01/06 05:03:08;;;;;;;4.30;1.90;;;;;;;;;;5011488;28;20415;-43
2023/01/06 05:05:34;;;;;;;6.37;1.70;;;;;;;;;;5011845;28;20475;-43
2023/01/06 05:08:00;;;;;;;2.20;1.60;;;;;;;;;;5003664;28;20807;-43
2023/01/06 05:10:26;;;;;;;1.60;1.50;;;;;;;;;;5010565;28;20430;-42
2023/01/06 05:12:52;;;;;;;2.30;1.60;;;;;;;;;;5011960;28;20418;-43
2023/01/06 05:15:18;;;;;;;1.97;1.67;;;;;;;;;;5010649;28;20534;-43
2023/01/06 05:17:44;;;;;;;3.80;1.47;;;;;;;;;;5008928;28;20465;-43
2023/01/06 05:20:10;;;;;;;3.40;1.30;;;;;;;;;;5011854;28;20414;-43
2023/01/06 05:22:36;;;;;;;2.93;2.03;;;;;;;;;;5003853;28;20416;-43
2023/01/06 05:25:02;;;;;;;1.67;1.57;;;;;;;;;;5010387;28;20469;-43
2023/01/06 05:27:28;;;;;;;3.67;1.63;;;;;;;;;;5011492;28;20418;-43
2023/01/06 05:29:54;;;;;;;3.27;1.77;;;;;;;;;;5007137;28;20475;-44
2023/01/06 05:32:20;;;;;;;9.40;1.47;;;;;;;;;;5008655;28;20935;-44
2023/01/06 05:34:46;;;;;;;3.10;1.50;;;;;;;;;;5008435;28;21150;-44
2023/01/06 05:37:12;;;;;;;2.77;2.10;;;;;;;;;;5011498;28;20907;-43
2023/01/06 05:39:38;;;;;;;1.60;1.50;;;;;;;;;;5011579;28;20522;-43
2023/01/06 05:42:04;;;;;;;2.17;1.60;;;;;;;;;;5008584;28;20415;-43
2023/01/06 05:44:30;;;;;;;3.03;1.40;;;;;;;;;;5012822;28;20415;-45
2023/01/06 05:46:55;;;;;;;1.50;1.40;;;;;;;;;;5006516;28;20416;-45
2023/01/06 05:49:21;;;;;;;1.67;1.40;;;;;;;;;;5012805;28;20896;-45
2023/01/06 05:51:47;;;;;;;1.50;1.40;;;;;;;;;;5012658;28;20837;-45
2023/01/06 05:54:13;;;;;;;2.13;1.67;;;;;;;;;;5012946;28;20828;-43
2023/01/06 05:56:39;;;;;;;2.23;1.70;;;;;;;;;;5009602;28;20482;-46
2023/01/06 05:59:05;;;;;;;4.07;1.57;;;;;;;;;;5012543;28;20426;-46
2023/01/06 06:01:31;;;;;;;3.17;1.20;;;;;;;;;;5006622;28;20499;-44
2023/01/06 06:03:58;;;;;;;5.67;1.70;;;;;;;;;;5012593;28;20422;-45
2023/01/06 06:06:25;;;;;;;2.17;1.93;;;;;;;;;;5012938;28;20816;-45
2023/01/06 06:08:51;;;;;;;3.07;1.47;;;;;;;;;;5009851;28;20498;-45
2023/01/06 06:11:18;;;;;;;1.73;1.33;;;;;;;;;;5010526;28;20434;-44
2023/01/06 06:14:02;;;;;;;3.30;1.70;;;;;;;;;;5013516;28;20426;-44
2023/01/06 06:16:28;;;;;;;1.53;1.43;;;;;;;;;;5010072;28;20460;-44
2023/01/06 06:18:55;;;;;;;2.50;1.20;;;;;;;;;;5016741;28;20420;-44
2023/01/06 06:21:22;;;;;;;1.77;1.50;;;;;;;;;;5015551;28;20930;-46
2023/01/06 06:23:48;;;;;;;1.30;1.20;;;;;;;;;;5017081;28;20966;-45
2023/01/06 06:26:14;;;;;;;1.50;1.40;;;;;;;;;;5012505;28;20439;-45
2023/01/06 06:28:41;;;;;;;2.90;1.60;;;;;;;;;;5010668;28;20455;-44
2023/01/06 06:31:11;;;;;;;1.70;1.40;;;;;;;;;;5016907;28;20843;-45
2023/01/06 06:33:38;;;;;;;1.93;1.20;;;;;;;;;;5017030;28;20497;-46
2023/01/06 06:36:05;;;;;;;3.60;1.40;;;;;;;;;;5017113;28;20474;-46
2023/01/06 06:38:31;;;;;;;1.47;1.37;;;;;;;;;;5013232;28;20501;-44
2023/01/06 06:40:58;;;;;;;2.97;1.30;;;;;;;;;;5016397;28;20417;-46
2023/01/06 06:43:24;;;;;;;4.23;1.50;;;;;;;;;;5011096;28;20406;-46
2023/01/06 06:45:50;;;;;;;2.40;1.60;;;;;;;;;;5016133;28;20419;-46
2023/01/06 06:48:16;;;;;;;4.23;1.47;;;;;;;;;;5015829;28;20474;-45
2023/01/06 06:50:42;;;;;;;4.60;2.60;;;;;;;;;;5013550;28;20433;-45
2023/01/06 06:53:08;;;;;;;1.50;1.40;;;;;;;;;;5016832;28;20408;-45
2023/01/06 06:55:35;;;;;;;4.30;1.50;;;;;;;;;;5015970;28;20897;-46
2023/01/06 06:58:01;;;;;;;2.93;1.43;;;;;;;;;;5009578;28;20470;-47
2023/01/06 07:00:27;;;;;;;1.70;1.60;;;;;;;;;;5016352;28;20453;-44
2023/01/06 07:02:53;;;;;;;1.60;1.50;;;;;;;;;;5015681;28;20407;-44
2023/01/06 07:05:19;;;;;;;1.93;1.50;;;;;;;;;;5016438;28;20955;-45
2023/01/06 07:07:45;;;;;;;1.80;1.40;;;;;;;;;;5010962;28;20439;-44
2023/01/06 07:10:13;;;;;;;1.63;1.40;;;;;;;;;;5014249;28;20490;-46
2023/01/06 07:12:39;;;;;;;5.00;1.60;;;;;;;;;;5011862;28;20931;-45
2023/01/06 07:15:05;;;;;;;1.30;1.20;;;;;;;;;;5015481;28;20470;-46
2023/01/06 07:17:32;;;;;;;1.53;1.43;;;;;;;;;;5015377;28;20419;-45
2023/01/06 07:19:58;;;;;;;2.27;1.30;;;;;;;;;;5013107;28;20764;-44
2023/01/06 07:22:24;;;;;;;2.13;1.13;;;;;;;;;;5015299;28;20412;-43
2023/01/06 07:24:49;;;;;;;1.30;1.07;;;;;;;;;;5008900;28;20408;-46
2023/01/06 07:27:15;;;;;;;2.00;1.33;;;;;;;;;;5014713;28;20412;-47
2023/01/06 07:29:42;;;;;;;2.60;1.43;;;;;;;;;;5014552;28;20586;-45
2023/01/06 07:32:08;;;;;;;2.80;1.20;;;;;;;;;;5014489;28;20413;-45
2023/01/06 07:34:34;;;;;;;2.03;1.23;;;;;;;;;;5008926;28;20458;-45
2023/01/06 07:37:00;;;;;;;1.13;1.03;;;;;;;;;;5013358;28;20427;-45
2023/01/06 07:39:26;;;;;;;8.20;1.60;;;;;;;;;;5007149;28;20439;-45
2023/01/06 07:41:52;;;;;;;1.27;1.17;;;;;;;;;;5006202;28;20503;-45
2023/01/06 07:44:18;;;;;;;2.50;1.40;;;;;;;;;;5013306;28;20421;-45
2023/01/06 07:46:44;;;;;;;2.30;1.50;;;;;;;;;;5010677;28;20957;-44
2023/01/06 07:49:10;;;;;;;6.43;1.60;;;;;;;;;;5013057;28;20931;-44
2023/01/06 07:51:36;;;;;;;1.37;1.27;;;;;;;;;;5012570;28;20922;-43
2023/01/06 07:54:03;;;;;;;4.40;1.10;;;;;;;;;;5012736;28;20899;-44
2023/01/06 07:56:29;;;;;;;2.60;1.50;;;;;;;;;;5011511;28;20447;-45
2023/01/06 07:58:56;;;;;;;1.70;1.60;;;;;;;;;;5012725;28;20470;-45
2023/01/06 08:01:22;;;;;;;2.63;1.50;;;;;;;;;;5010404;28;20415;-44
2023/01/06 08:03:48;;;;;;;1.50;1.40;;;;;;;;;;5012155;28;20958;-43
2023/01/06 08:06:14;;;;;;;2.80;1.67;;;;;;;;;;5003650;28;20843;-44
2023/01/06 08:08:41;;;;;;;5.13;1.60;;;;;;;;;;5008486;28;20489;-43
2023/01/06 08:11:07;;;;;;;1.83;1.30;;;;;;;;;;5012413;28;20491;-45
2023/01/06 08:13:33;;;;;;;1.57;1.47;;;;;;;;;;5012370;28;20419;-43
2023/01/06 08:16:03;;;;;;;2.60;1.40;;;;;;;;;;5010224;28;20466;-43
2023/01/06 08:18:29;;;;;;;2.20;1.30;;;;;;;;;;5012081;28;20447;-42
2023/01/06 08:21:02;;;;;;;1.50;1.40;;;;;;;;;;5006705;28;20417;-43
2023/01/06 08:23:28;;;;;;;1.40;1.30;;;;;;;;;;5012554;28;21107;-43
2023/01/06 08:26:01;;;;;;;2.60;1.70;;;;;;;;;;4995461;28;20415;-44
2023/01/06 08:28:27;;;;;;;4.30;1.50;;;;;;;;;;5012642;28;20794;-44
2023/01/06 08:30:53;;;;;;;1.63;1.53;;;;;;;;;;5013143;28;20407;-45
2023/01/06 08:33:19;;;;;;;1.20;1.10;;;;;;;;;;5008743;28;20778;-43
2023/01/06 08:35:46;;;;;;;1.67;1.43;;;;;;;;;;5012526;28;21061;-43
2023/01/06 08:38:12;;;;;;;1.40;1.30;;;;;;;;;;5004158;28;20946;-46
2023/01/06 08:40:38;;;;;;;2.43;1.37;;;;;;;;;;5012871;28;20435;-45
2023/01/06 08:43:04;;;;;;;1.73;1.47;;;;;;;;;;5010395;28;20399;-44
2023/01/06 08:45:30;;;;;;;1.83;1.50;;;;;;;;;;5012621;28;20817;-45
2023/01/06 08:47:56;;;;;;;2.00;1.33;;;;;;;;;;5012136;28;20489;-45
2023/01/06 08:50:22;;;;;;;1.40;1.30;;;;;;;;;;5011160;28;20797;-44
2023/01/06 08:52:48;;;;;;;2.90;1.20;;;;;;;;;;5012817;28;20769;-44
2023/01/06 08:55:14;;;;;;;4.07;1.40;;;;;;;;;;5012156;28;20498;-45
2023/01/06 08:57:40;;;;;;;1.60;1.50;;;;;;;;;;5009919;28;20968;-42
2023/01/06 09:00:06;;;;;;;1.50;1.40;;;;;;;;;;5012054;28;20418;-43
2023/01/06 09:02:32;;;;;;;4.60;1.40;;;;;;;;;;5007982;28;20804;-42
2023/01/06 09:04:58;;;;;;;2.20;1.30;;;;;;;;;;5010536;28;20411;-43
2023/01/06 09:07:24;;;;;;;1.47;1.37;;;;;;;;;;5011698;28;20773;-43
2023/01/06 09:09:50;;;;;;;2.10;1.33;;;;;;;;;;5012565;28;20415;-43
2023/01/06 09:12:16;;;;;;;2.00;1.80;;;;;;;;;;5012035;28;20542;-43
2023/01/06 09:14:42;;;;;;;1.37;1.27;;;;;;;;;;5011731;28;20458;-43
2023/01/06 09:17:08;;;;;;;5.90;1.30;;;;;;;;;;5011614;28;20439;-44
2023/01/06 09:19:34;;;;;;;1.60;1.50;;;;;;;;;;5005952;28;20510;-43
2023/01/06 09:22:00;;;;;;;5.60;1.70;;;;;;;;;;5009870;28;20498;-43
2023/01/06 09:24:26;;;;;;;3.47;1.27;;;;;;;;;;5011892;28;20415;-42
2023/01/06 09:26:52;;;;;;;1.50;1.40;;;;;;;;;;5011572;28;20419;-43
2023/01/06 09:29:19;;;;;;;2.50;1.60;;;;;;;;;;5007225;28;20450;-43
2023/01/06 09:31:44;;;;;;;1.20;1.10;;;;;;;;;;5011605;28;20454;-43
2023/01/06 09:34:10;;;;;;;2.97;1.90;;;;;;;;;;5018706;28;20449;-43
2023/01/06 09:36:38;;;;;;;1.00;1.00;;;;;;;;;;5011491;28;20411;-43
2023/01/06 09:39:04;;;;;;;1.43;1.20;;;;;;;;;;5011508;28;20454;-42
2023/01/06 09:41:42;;;;;;;4.17;1.10;;;;;;;;;;5011654;28;20400;-43
2023/01/06 09:44:08;;;;;;;4.40;1.30;;;;;;;;;;5011624;28;20905;-43
2023/01/06 09:46:36;;;;;;;1.50;1.40;;;;;;;;;;5011718;28;20407;-43
2023/01/06 09:49:20;;;;;;;1.23;1.13;;;;;;;;;;5011261;28;20439;-43
2023/01/06 09:51:46;;;;;;;1.63;1.33;;;;;;;;;;5015509;28;20418;-43
2023/01/06 09:54:19;;;;;;;1.37;1.27;;;;;;;;;;5015592;28;20903;-43
2023/01/06 09:56:46;;;;;;;4.83;1.23;;;;;;;;;;5003440;28;20484;-43
2023/01/06 09:59:28;;;;;;;2.27;1.37;;;;;;;;;;4995366;28;20432;-43
2023/01/06 10:01:58;;;;;;;2.50;1.43;;;;;;;;;;4995706;28;20658;-42
2023/01/06 10:04:26;;;;;;;5.23;1.53;;;;;;;;;;4995755;28;20411;-43
2023/01/06 10:06:56;;;;;;;1.50;1.40;;;;;;;;;;4995725;28;20412;-43
2023/01/06 10:09:22;;;;;;;1.60;1.40;;;;;;;;;;4995436;28;20420;-43
2023/01/06 10:12:06;;;;;;;1.73;1.53;;;;;;;;;;4995430;28;20914;-43
2023/01/06 10:14:37;;;;;;;3.23;1.50;;;;;;;;;;4995425;28;20843;-44
2023/01/06 10:17:15;;;;;;;1.50;1.40;;;;;;;;;;5013249;28;20415;-43
2023/01/06 10:19:48;;;;;;;1.60;1.50;;;;;;;;;;5014929;28;21002;-43
2023/01/06 10:22:14;;;;;;;2.90;1.77;;;;;;;;;;5014844;28;20417;-43
2023/01/06 10:24:40;;;;;;;1.63;1.53;;;;;;;;;;5013960;28;20437;-43
2023/01/06 10:27:24;;;;;;;1.50;1.40;;;;;;;;;;5014826;28;20427;-44
2023/01/06 10:29:52;;;;;;;1.83;1.70;;;;;;;;;;5014877;28;20930;-43
2023/01/06 10:32:18;;;;;;;2.93;1.40;;;;;;;;;;5014869;28;20419;-44
2023/01/06 10:34:45;;;;;;;3.90;2.23;;;;;;;;;;5014650;28;20462;-43
2023/01/06 10:37:18;;;;;;;1.77;1.67;;;;;;;;;;5014576;28;20403;-43
2023/01/06 10:39:47;;;;;;;6.73;1.90;;;;;;;;;;5014716;28;20419;-43
2023/01/06 10:45:17;;;;;;;1.80;1.70;;;;;;;;;;5014304;28;20453;-43
2023/01/06 10:47:43;;;;;;;1.60;1.50;;;;;;;;;;5014313;28;20628;-42
2023/01/06 10:50:17;;;;;;;1.80;1.70;;;;;;;;;;5014482;28;20423;-42
2023/01/06 10:52:44;;;;;;;1.57;1.47;;;;;;;;;;5014678;28;20407;-42
2023/01/06 10:55:18;;;;;;;1.60;1.50;;;;;;;;;;5014435;28;20464;-43
2023/01/06 10:57:45;;;;;;;1.60;1.50;;;;;;;;;;5007226;28;20468;-42
2023/01/06 11:00:15;;;;;;;2.07;1.97;;;;;;;;;;4995079;28;20416;-41
2023/01/06 11:02:45;;;;;;;6.83;1.80;;;;;;;;;;4994009;28;20455;-41
2023/01/06 11:05:13;;;;;;;1.67;1.57;;;;;;;;;;4994847;28;20896;-42
2023/01/06 11:07:51;;;;;;;1.67;1.53;;;;;;;;;;4994423;28;20424;-42
2023/01/06 11:10:23;;;;;;;1.87;1.77;;;;;;;;;;4994419;28;20419;-43
2023/01/06 11:12:49;;;;;;;2.27;1.50;;;;;;;;;;4994551;28;20909;-42
2023/01/06 11:15:20;;;;;;;2.20;2.00;;;;;;;;;;4994564;28;20478;-43
2023/01/06 11:17:47;;;;;;;3.10;1.77;;;;;;;;;;4994381;28;20482;-41
2023/01/06 11:20:13;;;;;;;2.30;2.07;;;;;;;;;;4994554;28;20500;-41
2023/01/06 11:22:40;;;;;;;1.70;1.60;;;;;;;;;;4994404;28;20921;-42
2023/01/06 11:25:22;;;;;;;1.40;1.30;;;;;;;;;;4994328;28;20515;-41
2023/01/06 11:27:49;;;;;;;2.30;2.10;;;;;;;;;;5002512;28;20497;-41
2023/01/06 11:30:25;;;;;;;3.37;2.20;;;;;;;;;;5005249;28;20901;-43
2023/01/06 11:32:51;;;;;;;1.67;1.50;;;;;;;;;;5013018;28;20424;-43
2023/01/06 11:35:21;;;;;;;2.37;2.10;;;;;;;;;;5013346;28;20454;-43
2023/01/06 11:37:47;;;;;;;3.47;2.13;;;;;;;;;;5013263;28;20441;-43
2023/01/06 11:40:16;;;;;;;2.70;1.77;;;;;;;;;;5013804;28;20423;-43
2023/01/06 11:42:42;;;;;;;2.30;1.53;;;;;;;;;;5014060;28;20411;-43
2023/01/06 11:45:28;;;;;;;1.87;1.60;;;;;;;;;;5013323;28;20422;-43
2023/01/06 11:47:54;;;;;;;1.80;1.70;;;;;;;;;;5013352;28;20540;-43
2023/01/06 11:50:20;;;;;;;1.53;1.43;;;;;;;;;;5013259;28;20432;-43
2023/01/06 11:52:57;;;;;;;2.23;1.53;;;;;;;;;;5013382;28;20417;-44
2023/01/06 11:55:26;;;;;;;1.53;1.43;;;;;;;;;;5013311;28;20520;-43
2023/01/06 11:57:57;;;;;;;2.00;1.90;;;;;;;;;;4995559;28;20436;-43
2023/01/06 12:00:46;;;;;;;1.90;1.80;;;;;;;;;;5008768;28;20424;-43
2023/01/06 12:03:18;;;;;;;2.77;1.87;;;;;;;;;;5002859;28;20470;-43
2023/01/06 12:05:51;;;;;;;2.63;1.93;;;;;;;;;;5012843;28;20847;-43
2023/01/06 12:08:21;;;;;;;1.60;1.50;;;;;;;;;;5001643;28;20448;-43
2023/01/06 12:10:50;;;;;;;4.03;1.60;;;;;;;;;;5013058;28;20420;-42
2023/01/06 12:13:16;;;;;;;2.97;1.83;;;;;;;;;;5007028;28;20795;-44
2023/01/06 12:15:44;;;;;;;1.70;1.60;;;;;;;;;;4993323;28;20466;-44
2023/01/06 12:18:22;;;;;;;1.73;1.60;;;;;;;;;;4992952;28;20487;-44
2023/01/06 12:21:01;;;;;;;2.47;1.63;;;;;;;;;;4995280;28;20435;-43
2023/01/06 12:23:35;;;;;;;1.50;1.40;;;;;;;;;;4994409;28;20393;-43
2023/01/06 12:26:08;;;;;;;1.80;1.70;;;;;;;;;;5011780;28;20406;-44
2023/01/06 12:28:36;;;;;;;2.47;2.00;;;;;;;;;;5012400;28;20800;-43
2023/01/06 12:31:02;;;;;;;1.93;1.83;;;;;;;;;;5012757;28;20784;-43
2023/01/06 12:33:46;;;;;;;3.00;1.80;;;;;;;;;;5012533;28;20504;-43
2023/01/06 12:36:36;;;;;;;1.73;1.53;;;;;;;;;;5012016;28;20535;-43
2023/01/06 12:39:03;;;;;;;1.63;1.53;;;;;;;;;;5001847;28;20874;-43
2023/01/06 12:41:37;;;;;;;2.00;1.60;;;;;;;;;;5012483;28;20404;-43
2023/01/06 12:44:11;;;;;;;1.47;1.37;;;;;;;;;;5010536;28;20420;-43
2023/01/06 12:46:42;;;;;;;1.67;1.57;;;;;;;;;;5006826;28;20936;-43
2023/01/06 12:49:16;;;;;;;1.70;1.33;;;;;;;;;;5010243;28;20427;-43
2023/01/06 12:51:44;;;;;;;2.73;1.87;;;;;;;;;;5011459;28;20430;-43
2023/01/06 12:54:16;;;;;;;1.90;1.77;;;;;;;;;;5011562;28;20406;-43
2023/01/06 12:56:54;;;;;;;5.67;2.00;;;;;;;;;;5011687;28;20576;-44
2023/01/06 12:59:20;;;;;;;1.40;1.30;;;;;;;;;;5008242;28;20485;-43
2023/01/06 13:01:55;;;;;;;5.50;1.63;;;;;;;;;;5007435;28;20449;-43
2023/01/06 13:04:40;;;;;;;1.50;1.40;;;;;;;;;;5011960;28;20417;-43
2023/01/06 13:07:11;;;;;;;3.43;2.67;;;;;;;;;;5003902;28;20465;-43
2023/01/06 13:09:44;;;;;;;1.70;1.60;;;;;;;;;;5010381;28;20422;-43
2023/01/06 13:12:19;;;;;;;3.23;1.50;;;;;;;;;;5003839;28;20452;-43
2023/01/06 13:14:51;;;;;;;1.77;1.63;;;;;;;;;;5006990;28;20998;-43
2023/01/06 13:17:32;;;;;;;4.10;3.80;;;;;;;;;;5011211;28;20491;-43
2023/01/06 13:20:04;;;;;;;4.90;1.70;;;;;;;;;;5008367;28;20784;-44
2023/01/06 13:23:02;;;;;;;3.20;1.70;;;;;;;;;;5013845;28;20480;-43
2023/01/06 13:25:47;;;;;;;1.63;1.53;;;;;;;;;;4980767;28;20424;-42
2023/01/06 13:28:31;;;;;;;1.40;1.30;;;;;;;;;;5010855;28;20472;-43
2023/01/06 13:31:03;;;;;;;1.97;1.77;;;;;;;;;;5011467;28;20424;-44
2023/01/06 13:33:50;;;;;;;1.63;1.50;;;;;;;;;;5005165;28;20415;-43
2023/01/06 13:36:23;;;;;;;1.50;1.40;;;;;;;;;;5004844;28;20469;-43
2023/01/06 13:39:02;;;;;;;3.03;1.50;;;;;;;;;;5011608;28;20435;-44
2023/01/06 13:41:34;;;;;;;1.97;1.77;;;;;;;;;;5008838;28;20420;-44
2023/01/06 13:44:01;;;;;;;1.93;1.40;;;;;;;;;;5011545;28;20869;-43
2023/01/06 13:46:27;;;;;;;1.77;1.57;;;;;;;;;;5005211;28;20476;-45
2023/01/06 13:48:55;;;;;;;1.40;1.30;;;;;;;;;;5010028;28;20445;-44
2023/01/06 13:51:25;;;;;;;1.50;1.40;;;;;;;;;;5009801;28;20444;-44
2023/01/06 13:53:53;;;;;;;4.40;1.67;;;;;;;;;;5011497;28;20428;-44
2023/01/06 13:56:27;;;;;;;1.57;1.47;;;;;;;;;;5010386;28;20656;-44
2023/01/06 13:59:12;;;;;;;2.30;1.60;;;;;;;;;;5011122;28;20480;-44
2023/01/06 14:01:38;;;;;;;1.40;1.30;;;;;;;;;;5007203;28;20781;-44
2023/01/06 14:04:23;;;;;;;1.50;1.30;;;;;;;;;;5008057;28;20503;-44
2023/01/06 14:06:49;;;;;;;2.30;1.20;;;;;;;;;;5010855;28;20414;-43
2023/01/06 14:09:17;;;;;;;1.40;1.30;;;;;;;;;;5010934;28;20429;-43
2023/01/06 14:11:43;;;;;;;1.40;1.30;;;;;;;;;;5011473;28;20501;-43
2023/01/06 14:14:29;;;;;;;1.50;1.30;;;;;;;;;;5011428;28;20555;-43
2023/01/06 14:16:56;;;;;;;1.30;1.20;;;;;;;;;;5011323;28;20426;-43
2023/01/06 14:19:24;;;;;;;1.53;1.30;;;;;;;;;;5011290;28;20472;-44
2023/01/06 14:21:52;;;;;;;1.30;1.20;;;;;;;;;;5010901;28;20532;-43
2023/01/06 14:24:20;;;;;;;1.27;1.17;;;;;;;;;;5009439;28;20407;-44
2023/01/06 14:26:46;;;;;;;1.70;1.60;;;;;;;;;;5009767;28;20399;-44
2023/01/06 14:29:30;;;;;;;1.77;1.50;;;;;;;;;;5009302;28;20418;-44
2023/01/06 14:31:56;;;;;;;1.60;1.50;;;;;;;;;;5009848;28;20463;-44
2023/01/06 14:34:22;;;;;;;1.60;1.50;;;;;;;;;;5009619;28;20915;-43
2023/01/06 14:36:49;;;;;;;1.53;1.43;;;;;;;;;;5011227;28;20477;-43
2023/01/06 14:39:22;;;;;;;1.50;1.40;;;;;;;;;;5014048;28;20472;-43
2023/01/06 14:41:54;;;;;;;1.70;1.60;;;;;;;;;;5014693;28;20406;-43
2023/01/06 14:44:32;;;;;;;2.60;1.50;;;;;;;;;;5014599;28;20414;-43
2023/01/06 14:47:07;;;;;;;2.00;1.83;;;;;;;;;;5014601;28;20941;-43
2023/01/06 14:49:42;;;;;;;1.87;1.77;;;;;;;;;;5014414;28;20416;-43
2023/01/06 14:52:19;;;;;;;2.13;1.97;;;;;;;;;;5014713;28;20410;-43
2023/01/06 14:54:46;;;;;;;1.73;1.63;;;;;;;;;;5014370;28;20876;-43
2023/01/06 14:57:26;;;;;;;2.10;2.00;;;;;;;;;;4996079;28;20970;-44
2023/01/06 15:00:05;;;;;;;2.30;2.10;;;;;;;;;;4994743;28;20501;-43
2023/01/06 15:02:32;;;;;;;2.00;1.90;;;;;;;;;;4994710;28;20412;-43
2023/01/06 15:04:58;;;;;;;2.20;2.10;;;;;;;;;;4994689;28;20473;-44
2023/01/06 15:07:24;;;;;;;1.83;1.73;;;;;;;;;;4994296;28;20417;-43